createdAt,value
2017-11-25T00:00:23.226Z,24.87
2017-11-25T00:02:49.661Z,23.40
2017-11-25T00:05:16.107Z,25.37
2017-11-25T00:07:42.538Z,25.10
2017-11-25T00:10:08.964Z,23.67
2017-11-25T00:12:36.122Z,22.83
2017-11-25T00:15:02.447Z,23.90
2017-11-25T00:17:28.966Z,23.30
2017-11-25T00:19:55.409Z,25.07
2017-11-25T00:22:21.783Z,24.73
2017-11-25T00:24:48.141Z,22.67
2017-11-25T00:27:14.518Z,24.50
2017-11-25T00:29:41.754Z,23.10
2017-11-25T00:32:08.104Z,24.70
2017-11-25T00:34:34.435Z,23.77
2017-11-25T00:37:00.974Z,25.90
2017-11-25T00:39:27.408Z,26.20
2017-11-25T00:41:53.812Z,33.03
2017-11-25T00:44:20.285Z,38.37
2017-11-25T00:46:47.326Z,28.97
2017-11-25T00:49:13.770Z,24.90
2017-11-25T00:51:40.195Z,23.40
2017-11-25T00:54:06.638Z,24.13
2017-11-25T00:56:33.167Z,23.57
2017-11-25T00:58:59.604Z,26.60
2017-11-25T01:01:26.037Z,22.87
2017-11-25T01:03:53.197Z,25.10
2017-11-25T01:06:19.622Z,22.90
2017-11-25T01:08:46.068Z,24.87
2017-11-25T01:11:12.492Z,24.30
2017-11-25T01:13:38.934Z,22.80
2017-11-25T01:16:05.369Z,22.50
2017-11-25T01:18:31.796Z,27.47
2017-11-25T01:20:59.050Z,22.10
2017-11-25T01:23:25.492Z,24.60
2017-11-25T01:25:51.920Z,20.60
2017-11-25T01:28:18.287Z,27.40
2017-11-25T01:30:44.684Z,24.50
2017-11-25T01:33:11.119Z,24.50
2017-11-25T01:35:37.555Z,20.53
2017-11-25T01:38:04.710Z,27.37
2017-11-25T01:40:31.243Z,21.57
2017-11-25T01:42:57.680Z,21.17
2017-11-25T01:45:24.121Z,21.73
2017-11-25T01:47:50.555Z,25.57
2017-11-25T01:50:16.982Z,25.83
2017-11-25T01:52:43.519Z,25.00
2017-11-25T01:55:10.578Z,22.20
2017-11-25T01:57:37.014Z,21.00
2017-11-25T02:00:03.442Z,21.33
2017-11-25T02:02:29.874Z,21.90
2017-11-25T02:04:56.309Z,21.27
2017-11-25T02:07:22.750Z,20.90
2017-11-25T02:09:49.184Z,23.57
2017-11-25T02:12:16.429Z,21.70
2017-11-25T02:14:42.966Z,20.30
2017-11-25T02:17:09.410Z,20.30
2017-11-25T02:19:35.770Z,18.10
2017-11-25T02:22:02.136Z,17.20
2017-11-25T02:24:28.577Z,16.23
2017-11-25T02:26:55.028Z,18.00
2017-11-25T02:29:22.197Z,21.63
2017-11-25T02:31:48.624Z,22.87
2017-11-25T02:34:15.161Z,18.33
2017-11-25T02:36:41.599Z,18.40
2017-11-25T02:39:08.034Z,18.53
2017-11-25T02:41:34.477Z,20.13
2017-11-25T02:44:00.900Z,21.07
2017-11-25T02:46:28.154Z,18.77
2017-11-25T02:48:54.588Z,19.77
2017-11-25T02:51:21.023Z,19.73
2017-11-25T02:53:47.457Z,20.00
2017-11-25T02:56:13.906Z,19.93
2017-11-25T02:58:40.327Z,21.57
2017-11-25T03:01:06.774Z,20.80
2017-11-25T03:03:34.014Z,20.77
2017-11-25T03:06:00.457Z,21.00
2017-11-25T03:08:26.896Z,21.07
2017-11-25T03:10:53.319Z,20.47
2017-11-25T03:13:19.762Z,22.53
2017-11-25T03:15:46.188Z,21.07
2017-11-25T03:18:12.630Z,22.33
2017-11-25T03:20:39.875Z,21.07
2017-11-25T03:23:06.310Z,19.60
2017-11-25T03:25:32.754Z,23.27
2017-11-25T03:27:59.221Z,22.80
2017-11-25T03:30:25.590Z,23.20
2017-11-25T03:32:52.034Z,25.10
2017-11-25T03:35:18.493Z,23.77
2017-11-25T03:37:45.703Z,24.83
2017-11-25T03:40:12.171Z,24.33
2017-11-25T03:42:38.606Z,19.97
2017-11-25T03:45:05.045Z,20.00
2017-11-25T03:47:31.477Z,21.47
2017-11-25T03:49:57.910Z,21.70
2017-11-25T03:52:24.351Z,26.60
2017-11-25T03:54:51.599Z,23.57
2017-11-25T03:57:18.034Z,22.83
2017-11-25T03:59:44.468Z,23.17
2017-11-25T04:02:10.911Z,24.50
2017-11-25T04:04:37.346Z,22.80
2017-11-25T04:07:03.745Z,24.50
2017-11-25T04:09:30.207Z,21.37
2017-11-25T04:11:57.359Z,23.40
2017-11-25T04:14:23.759Z,22.90
2017-11-25T04:16:50.238Z,23.50
2017-11-25T04:19:16.696Z,25.03
2017-11-25T04:21:43.213Z,25.30
2017-11-25T04:24:09.634Z,24.50
2017-11-25T04:26:36.083Z,23.50
2017-11-25T04:29:03.323Z,22.47
2017-11-25T04:31:29.724Z,23.97
2017-11-25T04:33:56.200Z,22.33
2017-11-25T04:36:22.625Z,23.47
2017-11-25T04:38:49.062Z,23.37
2017-11-25T04:41:15.496Z,22.00
2017-11-25T04:43:41.929Z,21.73
2017-11-25T04:46:09.090Z,22.07
2017-11-25T04:48:35.515Z,23.23
2017-11-25T04:51:01.959Z,23.03
2017-11-25T04:53:28.390Z,24.03
2017-11-25T04:55:54.923Z,23.63
2017-11-25T04:58:21.365Z,20.70
2017-11-25T05:00:47.803Z,23.87
2017-11-25T05:03:14.841Z,21.47
2017-11-25T05:05:41.283Z,22.03
2017-11-25T05:08:07.711Z,20.73
2017-11-25T05:10:34.145Z,21.07
2017-11-25T05:13:00.588Z,20.30
2017-11-25T05:15:27.013Z,26.47
2017-11-25T05:17:53.458Z,20.17
2017-11-25T05:20:20.534Z,21.43
2017-11-25T05:22:46.931Z,22.40
2017-11-25T05:25:13.372Z,22.37
2017-11-25T05:27:39.734Z,22.67
2017-11-25T05:30:06.079Z,22.50
2017-11-25T05:32:32.465Z,22.20
2017-11-25T05:34:58.798Z,21.87
2017-11-25T05:37:26.063Z,19.60
2017-11-25T05:39:52.385Z,21.60
2017-11-25T05:42:18.831Z,21.30
2017-11-25T05:44:45.358Z,18.40
2017-11-25T05:47:11.728Z,22.77
2017-11-25T05:49:38.085Z,20.50
2017-11-25T05:52:04.563Z,19.97
2017-11-25T05:54:31.717Z,21.17
2017-11-25T05:56:58.154Z,22.20
2017-11-25T05:59:24.578Z,19.90
2017-11-25T06:01:50.996Z,19.30
2017-11-25T06:04:17.446Z,19.70
2017-11-25T06:06:43.882Z,22.23
2017-11-25T06:09:10.324Z,21.50
2017-11-25T06:11:37.578Z,21.07
2017-11-25T06:14:04.004Z,19.17
2017-11-25T06:16:30.336Z,22.20
2017-11-25T06:18:56.771Z,27.90
2017-11-25T06:21:23.214Z,23.60
2017-11-25T06:23:49.622Z,23.33
2017-11-25T06:26:16.040Z,20.93
2017-11-25T06:28:43.226Z,19.20
2017-11-25T06:31:09.664Z,19.90
2017-11-25T06:33:36.105Z,21.17
2017-11-25T06:36:02.542Z,21.50
2017-11-25T06:38:28.950Z,21.47
2017-11-25T06:40:55.403Z,20.93
2017-11-25T06:43:21.835Z,19.87
2017-11-25T06:45:49.099Z,19.20
2017-11-25T06:48:15.524Z,17.90
2017-11-25T06:50:41.957Z,20.93
2017-11-25T06:53:08.393Z,20.60
2017-11-25T06:55:34.827Z,22.43
2017-11-25T06:58:01.272Z,19.80
2017-11-25T07:00:27.664Z,21.83
2017-11-25T07:02:54.856Z,22.60
2017-11-25T07:05:21.282Z,21.50
2017-11-25T07:07:47.716Z,21.20
2017-11-25T07:10:14.152Z,23.37
2017-11-25T07:12:40.591Z,21.43
2017-11-25T07:15:07.126Z,21.90
2017-11-25T07:17:33.864Z,24.47
2017-11-25T07:20:00.720Z,26.73
2017-11-25T07:22:27.144Z,25.23
2017-11-25T07:24:53.586Z,26.00
2017-11-25T07:27:20.013Z,25.27
2017-11-25T07:29:46.652Z,23.40
2017-11-25T07:32:13.096Z,20.20
2017-11-25T07:34:39.634Z,18.67
2017-11-25T07:37:06.068Z,20.53
2017-11-25T07:39:32.494Z,20.33
2017-11-25T07:52:04.224Z,29.57
2017-11-25T07:54:30.660Z,29.30
2017-11-25T07:56:57.922Z,23.10
2017-11-25T08:04:27.567Z,24.40
2017-11-25T08:06:54.010Z,30.10
2017-11-25T08:09:20.540Z,25.23
2017-11-25T08:11:47.069Z,25.27
2017-11-25T08:14:13.502Z,28.23
2017-11-25T08:16:39.938Z,26.73
2017-11-25T08:19:06.576Z,25.00
2017-11-25T08:21:33.122Z,23.87
2017-11-25T08:23:59.557Z,22.67
2017-11-25T08:26:25.998Z,26.17
2017-11-25T08:28:52.529Z,25.80
2017-11-25T08:31:19.160Z,25.50
2017-11-25T08:33:45.603Z,26.17
2017-11-25T08:36:12.047Z,30.07
2017-11-25T08:38:38.677Z,30.93
2017-11-25T08:41:05.105Z,27.50
2017-11-25T08:43:31.760Z,23.80
2017-11-25T08:45:58.602Z,26.33
2017-11-25T08:48:25.125Z,25.07
2017-11-25T08:50:51.875Z,26.27
2017-11-25T08:53:18.301Z,25.17
2017-11-25T08:55:44.933Z,25.73
2017-11-25T08:58:11.578Z,24.30
2017-11-25T09:00:38.091Z,25.07
2017-11-25T09:03:04.664Z,26.30
2017-11-25T09:05:31.621Z,24.30
2017-11-25T09:07:58.241Z,28.07
2017-11-25T09:10:24.803Z,25.77
2017-11-25T09:12:51.832Z,26.87
2017-11-25T09:15:18.567Z,26.10
2017-11-25T09:17:45.311Z,26.33
2017-11-25T09:20:12.265Z,25.40
2017-11-25T09:22:38.698Z,24.90
2017-11-25T09:25:05.176Z,24.80
2017-11-25T09:27:31.664Z,23.53
2017-11-25T09:29:58.695Z,25.03
2017-11-25T09:32:25.147Z,23.80
2017-11-25T09:34:51.715Z,25.13
2017-11-25T09:37:18.220Z,25.03
2017-11-25T09:39:44.970Z,27.03
2017-11-25T09:42:11.406Z,25.17
2017-11-25T09:44:37.935Z,24.93
2017-11-25T09:47:04.368Z,22.60
2017-11-25T09:49:30.892Z,24.07
2017-11-25T09:51:57.339Z,24.37
2017-11-25T09:54:23.956Z,23.27
2017-11-25T09:56:51.241Z,23.77
2017-11-25T09:59:17.703Z,23.47
2017-11-25T10:01:44.104Z,22.23
2017-11-25T10:04:10.540Z,24.47
2017-11-25T10:09:08.918Z,22.93
2017-11-25T10:11:35.369Z,21.83
2017-11-25T10:14:01.805Z,22.17
2017-11-25T10:16:28.342Z,21.20
2017-11-25T10:18:54.878Z,21.83
2017-11-25T10:21:21.327Z,22.83
2017-11-25T10:23:47.762Z,21.03
2017-11-25T10:26:14.285Z,21.23
2017-11-25T10:28:41.233Z,22.67
2017-11-25T10:31:07.667Z,21.80
2017-11-25T10:33:34.107Z,22.63
2017-11-25T10:36:00.535Z,22.03
2017-11-25T10:38:27.081Z,21.70
2017-11-25T10:40:53.514Z,22.30
2017-11-25T10:43:19.945Z,23.03
2017-11-25T10:45:46.395Z,22.47
2017-11-25T10:48:13.427Z,23.40
2017-11-25T10:50:40.037Z,22.90
2017-11-25T10:53:06.610Z,20.53
2017-11-25T10:55:33.555Z,21.87
2017-11-25T10:58:00.208Z,22.40
2017-11-25T11:00:26.727Z,24.90
2017-11-25T11:02:53.547Z,26.10
2017-11-25T11:05:20.515Z,25.40
2017-11-25T11:07:46.990Z,29.33
2017-11-25T11:10:13.581Z,36.93
2017-11-25T11:12:40.140Z,46.30
2017-11-25T11:15:06.667Z,37.50
2017-11-25T11:17:33.275Z,23.40
2017-11-25T11:20:00.258Z,24.67
2017-11-25T11:22:26.797Z,26.80
2017-11-25T11:24:53.334Z,26.60
2017-11-25T11:27:19.695Z,26.57
2017-11-25T11:29:46.614Z,24.93
2017-11-25T11:32:13.150Z,27.77
2017-11-25T11:34:40.088Z,25.33
2017-11-25T11:37:06.840Z,28.57
2017-11-25T11:39:33.475Z,25.43
2017-11-25T11:41:59.911Z,24.73
2017-11-25T11:44:26.338Z,22.43
2017-11-25T11:46:53.213Z,23.80
2017-11-25T11:49:19.683Z,23.60
2017-11-25T11:51:46.051Z,24.07
2017-11-25T11:54:12.383Z,24.50
2017-11-25T11:56:38.825Z,25.50
2017-11-25T11:59:05.347Z,23.47
2017-11-25T12:01:31.790Z,22.50
2017-11-25T12:03:58.122Z,25.00
2017-11-25T12:06:24.564Z,24.50
2017-11-25T12:08:51.195Z,25.70
2017-11-25T12:11:17.638Z,25.77
2017-11-25T12:13:44.073Z,23.70
2017-11-25T12:16:10.501Z,26.80
2017-11-25T12:18:37.030Z,23.50
2017-11-25T12:21:03.479Z,22.00
2017-11-25T12:23:29.905Z,23.73
2017-11-25T12:25:56.340Z,23.10
2017-11-25T12:28:23.272Z,22.63
2017-11-25T12:30:49.691Z,25.50
2017-11-25T12:33:16.162Z,21.23
2017-11-25T12:35:42.697Z,24.70
2017-11-25T12:38:09.231Z,24.33
2017-11-25T12:40:35.668Z,23.13
2017-11-25T12:43:02.616Z,22.90
2017-11-25T12:45:29.055Z,26.90
2017-11-25T12:47:55.592Z,30.50
2017-11-25T12:50:22.848Z,28.40
2017-11-25T12:52:49.373Z,29.10
2017-11-25T12:55:15.970Z,25.07
2017-11-25T12:57:42.443Z,24.70
2017-11-25T13:00:08.881Z,29.40
2017-11-25T13:02:35.319Z,29.00
2017-11-25T13:05:01.751Z,22.90
2017-11-25T13:07:28.188Z,19.63
2017-11-25T13:09:54.620Z,21.17
2017-11-25T13:12:21.055Z,20.27
2017-11-25T13:14:47.631Z,23.27
2017-11-25T13:17:13.996Z,22.80
2017-11-25T13:19:40.462Z,22.37
2017-11-25T13:22:06.998Z,21.57
2017-11-25T13:24:33.432Z,20.43
2017-11-25T13:26:59.868Z,19.60
2017-11-25T13:29:26.311Z,20.43
2017-11-25T13:31:52.736Z,21.83
2017-11-25T13:34:19.171Z,21.37
2017-11-25T13:36:45.580Z,20.77
2017-11-25T13:39:12.050Z,22.30
2017-11-25T13:41:38.894Z,23.77
2017-11-25T13:44:05.329Z,23.97
2017-11-25T13:46:32.585Z,24.33
2017-11-25T13:48:59.010Z,26.60
2017-11-25T13:51:25.452Z,28.70
2017-11-25T13:53:52.594Z,27.23
2017-11-25T13:56:19.029Z,28.07
2017-11-25T13:58:45.575Z,27.90
2017-11-25T14:01:12.009Z,25.40
2017-11-25T14:03:38.436Z,22.40
2017-11-25T14:06:04.870Z,23.07
2017-11-25T14:08:31.304Z,22.57
2017-11-25T14:10:57.747Z,22.47
2017-11-25T14:13:24.114Z,22.00
2017-11-25T14:15:50.814Z,22.83
2017-11-25T14:18:17.249Z,21.93
2017-11-25T14:20:43.750Z,24.00
2017-11-25T14:23:10.325Z,22.77
2017-11-25T14:25:36.757Z,24.10
2017-11-25T14:28:03.200Z,26.00
2017-11-25T14:30:29.597Z,27.10
2017-11-25T14:32:56.076Z,25.37
2017-11-25T14:35:22.607Z,26.77
2017-11-25T14:37:49.850Z,30.50
2017-11-25T14:40:16.293Z,29.20
2017-11-25T14:42:43.133Z,32.10
2017-11-25T14:45:10.392Z,33.80
2017-11-25T14:47:36.776Z,31.17
2017-11-25T14:50:03.220Z,29.10
2017-11-25T14:52:29.900Z,26.10
2017-11-25T14:54:56.337Z,22.33
2017-11-25T14:57:22.762Z,22.20
2017-11-25T14:59:49.196Z,24.47
2017-11-25T15:02:15.562Z,23.10
2017-11-25T15:04:41.963Z,24.07
2017-11-25T15:07:08.815Z,22.77
2017-11-25T15:09:35.249Z,25.80
2017-11-25T15:12:01.684Z,26.30
2017-11-25T15:14:28.119Z,25.63
2017-11-25T15:16:54.546Z,27.07
2017-11-25T15:19:20.982Z,27.20
2017-11-25T15:21:47.414Z,28.27
2017-11-25T15:24:14.259Z,28.27
2017-11-25T15:26:40.797Z,29.37
2017-11-25T15:29:07.235Z,31.37
2017-11-25T15:31:33.599Z,28.97
2017-11-25T15:33:59.978Z,30.90
2017-11-25T15:36:26.429Z,30.47
2017-11-25T15:38:52.867Z,32.03
2017-11-25T15:41:19.310Z,31.00
2017-11-25T15:43:45.739Z,32.33
2017-11-25T15:46:12.179Z,31.30
2017-11-25T15:48:38.606Z,32.33
2017-11-25T15:51:05.042Z,37.77
2017-11-25T15:53:31.474Z,41.80
2017-11-25T15:55:57.909Z,39.57
2017-11-25T15:58:24.353Z,42.13
2017-11-25T16:00:50.781Z,41.53
2017-11-25T16:03:17.216Z,40.80
2017-11-25T16:05:43.584Z,41.93
2017-11-25T16:08:09.943Z,43.73
2017-11-25T16:10:36.419Z,43.63
2017-11-25T16:13:02.851Z,38.37
2017-11-25T16:15:30.103Z,40.43
2017-11-25T16:17:56.537Z,50.00
2017-11-25T16:20:22.975Z,50.63
2017-11-25T16:22:49.409Z,47.43
2017-11-25T16:25:15.842Z,49.17
2017-11-25T16:27:42.276Z,41.83
2017-11-25T16:30:08.710Z,42.90
2017-11-25T16:32:35.871Z,39.67
2017-11-25T16:35:02.306Z,40.23
2017-11-25T16:37:28.735Z,41.27
2017-11-25T16:39:55.167Z,43.37
2017-11-25T16:42:21.534Z,47.10
2017-11-25T16:44:47.900Z,40.60
2017-11-25T16:47:14.379Z,42.27
2017-11-25T16:49:41.529Z,40.77
2017-11-25T16:52:07.958Z,45.37
2017-11-25T16:54:34.393Z,45.50
2017-11-25T16:57:00.823Z,43.40
2017-11-25T16:59:27.269Z,43.00
2017-11-25T17:01:53.691Z,45.20
2017-11-25T17:04:20.129Z,45.57
2017-11-25T17:06:47.286Z,44.60
2017-11-25T17:09:13.718Z,45.10
2017-11-25T17:11:40.155Z,41.83
2017-11-25T17:14:06.590Z,41.87
2017-11-25T17:16:33.025Z,43.23
2017-11-25T17:18:59.462Z,39.90
2017-11-25T17:21:25.885Z,39.60
2017-11-25T17:23:53.125Z,40.90
2017-11-25T17:26:19.543Z,37.10
2017-11-25T17:28:46.018Z,36.20
2017-11-25T17:31:12.409Z,38.40
2017-11-25T17:33:38.868Z,36.70
2017-11-25T17:36:05.312Z,36.90
2017-11-25T17:38:31.745Z,37.50
2017-11-25T17:40:58.907Z,42.07
2017-11-25T17:43:25.333Z,42.60
2017-11-25T17:45:51.788Z,41.07
2017-11-25T17:48:18.202Z,42.47
2017-11-25T17:50:44.740Z,39.63
2017-11-25T17:53:11.174Z,43.40
2017-11-25T17:55:37.544Z,40.30
2017-11-25T17:58:04.768Z,40.97
2017-11-25T18:00:31.203Z,39.17
2017-11-25T18:02:57.565Z,39.57
2017-11-25T18:05:23.960Z,40.40
2017-11-25T18:07:50.395Z,40.27
2017-11-25T18:10:16.934Z,40.37
2017-11-25T18:12:43.376Z,39.73
2017-11-25T18:15:10.518Z,39.20
2017-11-25T18:17:36.962Z,40.70
2017-11-25T18:20:03.387Z,40.90
2017-11-25T18:22:29.821Z,40.30
2017-11-25T18:24:56.257Z,38.43
2017-11-25T18:27:22.691Z,39.27
2017-11-25T18:29:49.128Z,39.20
2017-11-25T18:32:16.286Z,39.50
2017-11-25T18:34:42.713Z,41.50
2017-11-25T18:37:09.150Z,41.83
2017-11-25T18:39:35.515Z,41.77
2017-11-25T18:42:01.893Z,47.30
2017-11-25T18:44:28.247Z,49.67
2017-11-25T18:46:54.681Z,44.70
2017-11-25T18:49:21.925Z,45.37
2017-11-25T18:51:48.369Z,43.30
2017-11-25T18:54:14.805Z,43.20
2017-11-25T18:56:41.225Z,45.37
2017-11-25T18:59:07.643Z,43.70
2017-11-25T19:01:34.017Z,44.50
2017-11-25T19:04:00.447Z,43.23
2017-11-25T19:06:27.701Z,42.47
2017-11-25T19:08:54.129Z,40.27
2017-11-25T19:11:20.564Z,36.80
2017-11-25T19:13:47.002Z,35.90
2017-11-25T19:16:13.462Z,35.40
2017-11-25T19:18:39.984Z,36.00
2017-11-25T19:21:06.413Z,34.57
2017-11-25T19:23:33.670Z,33.93
2017-11-25T19:26:00.092Z,36.13
2017-11-25T19:28:26.527Z,35.27
2017-11-25T19:30:52.962Z,32.93
2017-11-25T19:33:19.396Z,31.23
2017-11-25T19:35:45.838Z,28.60
2017-11-25T19:38:12.265Z,29.70
2017-11-25T19:40:39.509Z,29.77
2017-11-25T19:43:05.926Z,30.70
2017-11-25T19:45:32.391Z,32.70
2017-11-25T19:47:58.940Z,32.07
2017-11-25T19:50:25.359Z,31.93
2017-11-25T19:52:51.802Z,30.77
2017-11-25T19:55:18.237Z,29.80
2017-11-25T19:57:45.514Z,30.57
2017-11-25T20:00:11.917Z,29.60
2017-11-25T20:02:38.352Z,30.77
2017-11-25T20:05:04.787Z,28.77
2017-11-25T20:07:31.231Z,29.00
2017-11-25T20:09:57.656Z,29.57
2017-11-25T20:12:24.091Z,27.67
2017-11-25T20:14:51.224Z,28.67
2017-11-25T20:17:17.676Z,29.00
2017-11-25T20:19:44.109Z,29.20
2017-11-25T20:22:10.658Z,28.60
2017-11-25T20:24:37.085Z,30.60
2017-11-25T20:27:03.517Z,28.30
2017-11-25T20:29:29.951Z,27.40
2017-11-25T20:31:57.103Z,28.00
2017-11-25T20:34:23.538Z,28.27
2017-11-25T20:36:49.973Z,25.77
2017-11-25T20:39:16.416Z,28.73
2017-11-25T20:41:42.849Z,27.30
2017-11-25T20:44:09.277Z,25.77
2017-11-25T20:46:35.711Z,27.03
2017-11-25T20:49:02.863Z,25.60
2017-11-25T20:51:29.288Z,26.47
2017-11-25T20:53:55.720Z,23.43
2017-11-25T20:56:22.167Z,22.40
2017-11-25T20:58:48.600Z,24.00
2017-11-25T21:01:15.030Z,19.53
2017-11-25T21:03:41.470Z,22.57
2017-11-25T21:06:08.727Z,23.27
2017-11-25T21:08:35.159Z,23.30
2017-11-25T21:11:01.526Z,24.37
2017-11-25T21:13:27.934Z,22.10
2017-11-25T21:15:54.360Z,21.67
2017-11-25T21:18:20.906Z,20.27
2017-11-25T21:20:47.332Z,20.00
2017-11-25T21:23:14.485Z,21.43
2017-11-25T21:25:40.930Z,22.87
2017-11-25T21:28:07.352Z,22.50
2017-11-25T21:30:33.795Z,22.73
2017-11-25T21:33:00.221Z,21.27
2017-11-25T21:35:26.663Z,19.83
2017-11-25T21:37:53.093Z,20.87
2017-11-25T21:40:20.246Z,19.97
2017-11-25T21:42:46.679Z,19.37
2017-11-25T21:45:13.122Z,18.03
2017-11-25T21:47:39.478Z,17.80
2017-11-25T21:50:05.990Z,18.83
2017-11-25T21:52:32.425Z,18.97
2017-11-25T21:54:58.952Z,17.83
2017-11-25T21:57:26.089Z,19.33
2017-11-25T21:59:52.509Z,17.83
2017-11-25T22:02:18.972Z,18.70
2017-11-25T22:04:45.416Z,19.40
2017-11-25T22:07:11.845Z,18.70
2017-11-25T22:09:38.172Z,20.03
2017-11-25T22:12:04.719Z,18.30
2017-11-25T22:14:31.872Z,18.60
2017-11-25T22:16:58.298Z,17.60
2017-11-25T22:19:24.742Z,18.60
2017-11-25T22:21:51.172Z,17.93
2017-11-25T22:24:17.604Z,19.37
2017-11-25T22:26:44.036Z,20.00
2017-11-25T22:29:10.472Z,18.50
2017-11-25T22:31:37.727Z,19.27
2017-11-25T22:34:04.159Z,20.27
2017-11-25T22:36:30.708Z,20.77
2017-11-25T22:38:57.142Z,18.67
2017-11-25T22:41:23.499Z,18.77
2017-11-25T22:43:49.907Z,18.40
2017-11-25T22:46:16.333Z,17.90
2017-11-25T22:48:43.594Z,19.00
2017-11-25T22:51:10.029Z,20.10
2017-11-25T22:53:36.456Z,20.13
2017-11-25T22:56:02.889Z,20.70
2017-11-25T22:58:29.332Z,20.47
2017-11-25T23:00:55.759Z,20.40
2017-11-25T23:03:22.193Z,22.20
2017-11-25T23:05:49.353Z,23.47
2017-11-25T23:08:15.779Z,23.27
2017-11-25T23:10:42.111Z,21.07
2017-11-25T23:13:08.648Z,26.60
2017-11-25T23:15:35.091Z,25.80
2017-11-25T23:18:01.450Z,25.87
2017-11-25T23:20:27.961Z,26.20
2017-11-25T23:22:55.112Z,29.80
2017-11-25T23:25:21.477Z,28.60
2017-11-25T23:27:47.870Z,26.63
2017-11-25T23:30:14.304Z,27.00
2017-11-25T23:32:40.748Z,26.73
2017-11-25T23:35:07.179Z,28.27
2017-11-25T23:37:33.617Z,25.77
2017-11-25T23:40:00.863Z,24.00
2017-11-25T23:42:27.307Z,22.93
2017-11-25T23:44:53.740Z,24.57
2017-11-25T23:47:20.175Z,25.20
2017-11-25T23:49:46.610Z,26.53
2017-11-25T23:52:13.044Z,26.47
2017-11-25T23:54:39.439Z,24.80
2017-11-25T23:57:06.727Z,27.27
2017-11-25T23:59:33.160Z,26.70
